Time;durP1;ratioP1;P1;durP2;ratioP2;P2;SDS_P1;SDS_P2;PMS_P1;PMS_P2;Temp;Humidity;BMP_temperature;BMP_pressure;BME280_temperature;BME280_humidity;BME280_pressure;Samples;Min_cycle;Max_cycle;Signal;HPM_P1;HPM_P2
2021/06/17 00:00:09;;;;;;;8.33;6.03;;;;;;;16.47;90.71;99422.84;1670821;84;20947;-73
2021/06/17 00:02:36;;;;;;;15.55;6.42;;;;;;;16.55;90.54;99432.13;1664707;84;21026;-73
2021/06/17 00:05:07;;;;;;;14.50;6.03;;;;;;;16.62;90.18;99433.70;1665082;84;20951;-73
2021/06/17 00:07:34;;;;;;;7.85;6.22;;;;;;;16.66;89.95;99440.74;1664791;85;20972;-73
2021/06/17 00:10:00;;;;;;;11.30;5.00;;;;;;;16.67;89.58;99437.61;1668253;84;21932;-73
2021/06/17 00:12:27;;;;;;;9.13;4.92;;;;;;;16.67;89.41;99435.42;1699811;84;20947;-73
2021/06/17 00:14:53;;;;;;;16.40;5.80;;;;;;;16.65;89.14;99439.94;1689606;84;21146;-73
2021/06/17 00:17:19;;;;;;;8.35;5.90;;;;;;;16.64;88.99;99446.64;1688826;84;21078;-72
2021/06/17 00:19:47;;;;;;;7.62;5.42;;;;;;;16.65;88.98;99444.67;1693730;84;21157;-72
2021/06/17 00:22:14;;;;;;;10.98;5.40;;;;;;;16.70;88.80;99452.14;1690084;83;21938;-72
2021/06/17 00:24:41;;;;;;;7.33;5.42;;;;;;;16.77;88.34;99451.48;1688742;84;20969;-74
2021/06/17 00:27:07;;;;;;;8.63;5.78;;;;;;;16.83;87.93;99447.27;1668947;83;21050;-73
2021/06/17 00:29:34;;;;;;;12.23;5.55;;;;;;;16.87;87.54;99444.00;1671481;83;21010;-73
2021/06/17 00:32:01;;;;;;;8.53;5.40;;;;;;;16.91;87.25;99448.24;1677669;83;20948;-73
2021/06/17 00:34:27;;;;;;;9.73;5.50;;;;;;;16.94;86.91;99444.75;1681024;83;21133;-73
2021/06/17 00:36:54;;;;;;;7.97;4.70;;;;;;;16.97;86.47;99432.94;1676238;83;21045;-72
2021/06/17 00:39:21;;;;;;;8.50;4.85;;;;;;;16.99;86.03;99431.41;1677009;83;21108;-71
2021/06/17 00:41:47;;;;;;;8.28;5.55;;;;;;;17.01;85.56;99428.28;1682310;84;21510;-73
2021/06/17 00:44:14;;;;;;;10.03;5.65;;;;;;;17.00;85.15;99428.86;1686004;83;21047;-73
2021/06/17 00:46:40;;;;;;;10.90;4.83;;;;;;;17.01;84.96;99429.09;1689456;84;21572;-73
2021/06/17 00:49:07;;;;;;;12.03;5.20;;;;;;;17.03;84.72;99432.88;1690612;83;21019;-73
2021/06/17 00:51:34;;;;;;;7.08;5.10;;;;;;;17.03;84.52;99444.78;1686668;84;21026;-74
2021/06/17 00:54:01;;;;;;;10.18;5.00;;;;;;;17.03;84.33;99455.07;1694645;84;20959;-74
2021/06/17 00:56:27;;;;;;;8.20;5.30;;;;;;;17.04;84.16;99449.74;1675513;84;20994;-73
2021/06/17 00:58:54;;;;;;;7.45;4.95;;;;;;;17.02;84.04;99449.30;1685113;84;21418;-73
2021/06/17 01:01:20;;;;;;;9.68;5.47;;;;;;;17.02;83.87;99452.87;1688546;84;21049;-72
2021/06/17 01:03:48;;;;;;;8.80;5.15;;;;;;;17.03;83.72;99453.10;1644496;86;20980;-72
2021/06/17 01:06:15;;;;;;;8.08;4.95;;;;;;;17.02;83.63;99451.49;1664892;86;21111;-73
2021/06/17 01:08:53;;;;;;;14.28;5.45;;;;;;;17.01;83.51;99445.72;1627972;87;20919;-73
2021/06/17 01:11:49;;;;;;;10.70;5.40;;;;;;;17.01;83.33;99449.88;1654871;86;21084;-72
2021/06/17 01:14:23;;;;;;;11.88;5.90;;;;;;;17.01;83.30;99455.43;1669870;84;21012;-72
2021/06/17 01:17:06;;;;;;;10.60;5.12;;;;;;;17.01;83.36;99461.55;1654532;84;20995;-73
2021/06/17 01:19:53;;;;;;;9.75;5.05;;;;;;;17.03;83.39;99455.07;1644032;85;21573;-71
2021/06/17 01:22:29;;;;;;;9.45;5.03;;;;;;;17.05;83.12;99456.90;1652025;83;21487;-71
2021/06/17 01:25:32;;;;;;;11.63;5.90;;;;;;;17.05;82.88;99457.70;1654759;84;21166;-72
2021/06/17 01:28:13;;;;;;;18.00;5.87;;;;;;;17.07;82.61;99468.44;1656718;84;20864;-72
2021/06/17 01:31:02;;;;;;;12.40;4.97;;;;;;;17.07;82.44;99458.73;1646575;84;21139;-71
2021/06/17 01:33:35;;;;;;;9.53;5.33;;;;;;;17.07;82.27;99460.92;1633156;84;21013;-73
2021/06/17 01:36:07;;;;;;;14.50;5.60;;;;;;;17.05;82.23;99468.80;1675048;84;21011;-73
2021/06/17 01:38:34;;;;;;;12.37;5.08;;;;;;;17.02;82.38;99465.94;1686761;83;21801;-73
2021/06/17 01:41:01;;;;;;;12.43;4.97;;;;;;;17.01;82.49;99467.10;1692713;84;21608;-73
2021/06/17 01:43:27;;;;;;;10.38;4.62;;;;;;;17.01;82.48;99462.94;1692668;84;21644;-73
2021/06/17 01:45:55;;;;;;;10.20;4.53;;;;;;;17.00;82.50;99460.75;1689355;84;20964;-73
2021/06/17 01:48:22;;;;;;;8.55;5.58;;;;;;;16.97;82.45;99458.70;1662676;84;21192;-73
2021/06/17 01:50:50;;;;;;;20.23;5.20;;;;;;;16.97;82.45;99457.89;1682677;84;21031;-74
2021/06/17 01:53:17;;;;;;;10.78;4.28;;;;;;;16.95;82.45;99462.41;1670124;84;20952;-71
2021/06/17 01:55:45;;;;;;;11.03;4.37;;;;;;;16.95;82.32;99466.58;1699468;83;21119;-73
2021/06/17 01:58:14;;;;;;;10.85;5.15;;;;;;;16.94;82.32;99479.41;1695315;84;21106;-73
2021/06/17 02:00:44;;;;;;;11.43;5.95;;;;;;;16.92;82.37;99474.81;1682583;84;21964;-72
2021/06/17 02:03:10;;;;;;;10.30;5.55;;;;;;;16.90;82.45;99469.63;1692870;84;21101;-73
2021/06/17 02:05:37;;;;;;;10.32;5.40;;;;;;;16.90;82.43;99474.36;1683226;84;20984;-74
2021/06/17 02:08:05;;;;;;;11.73;4.90;;;;;;;16.88;82.48;99477.49;1687822;84;21083;-72
2021/06/17 02:10:32;;;;;;;12.28;5.50;;;;;;;16.85;82.49;99480.98;1696039;83;21130;-73
2021/06/17 02:12:59;;;;;;;11.33;5.62;;;;;;;16.82;82.61;99487.25;1695997;83;20893;-73
2021/06/17 02:15:29;;;;;;;16.82;6.53;;;;;;;16.77;82.78;99486.12;1694276;84;21544;-73
2021/06/17 02:17:57;;;;;;;15.40;7.08;;;;;;;16.73;83.06;99488.04;1675759;84;21093;-73
2021/06/17 02:20:23;;;;;;;14.07;5.80;;;;;;;16.69;83.25;99490.72;1687648;83;21018;-74
2021/06/17 02:22:52;;;;;;;13.55;6.45;;;;;;;16.68;83.49;99495.23;1691804;84;21670;-74
2021/06/17 02:25:20;;;;;;;10.25;5.80;;;;;;;16.69;83.58;99501.00;1690790;84;21279;-75
2021/06/17 02:27:50;;;;;;;22.37;6.35;;;;;;;16.67;83.66;99498.59;1673518;84;21118;-75
2021/06/17 02:30:17;;;;;;;15.70;6.45;;;;;;;16.66;83.81;99501.13;1672361;84;21114;-74
2021/06/17 02:32:50;;;;;;;21.30;6.90;;;;;;;16.65;83.80;99499.52;1691998;84;21616;-76
2021/06/17 02:35:21;;;;;;;;;;;;;;;16.66;83.93;99498.95;1680257;84;20994;-74
2021/06/17 02:37:52;;;;;;;18.20;5.63;;;;;;;16.68;83.85;99491.88;1686608;83;20135;-74
2021/06/17 02:40:18;;;;;;;18.12;5.12;;;;;;;16.72;84.00;99496.13;1673805;84;21068;-74
2021/06/17 02:42:45;;;;;;;14.38;5.20;;;;;;;16.76;83.85;99498.37;1670939;84;21618;-74
2021/06/17 02:45:13;;;;;;;10.95;5.03;;;;;;;16.80;83.71;99500.66;1659409;84;21058;-74
2021/06/17 02:47:40;;;;;;;16.10;5.65;;;;;;;16.86;83.70;99502.00;1663937;84;20989;-72
2021/06/17 02:50:08;;;;;;;15.40;6.15;;;;;;;16.94;83.87;99498.23;1688120;84;21049;-73
2021/06/17 02:52:40;;;;;;;12.33;4.85;;;;;;;17.00;83.10;99503.73;1673233;84;21187;-73
2021/06/17 02:55:07;;;;;;;12.15;5.25;;;;;;;17.03;83.07;99503.02;1677346;84;21571;-73
2021/06/17 02:57:58;;;;;;;10.03;5.35;;;;;;;17.04;82.87;99502.44;1672859;84;21512;-74
2021/06/17 03:00:28;;;;;;;14.25;5.92;;;;;;;17.04;82.88;99507.40;1678049;84;21421;-74
2021/06/17 03:03:03;;;;;;;12.00;5.62;;;;;;;17.04;82.84;99510.17;1662303;84;21108;-71
2021/06/17 03:05:43;;;;;;;10.80;5.30;;;;;;;17.07;82.95;99511.42;1666668;84;21809;-73
2021/06/17 03:08:34;;;;;;;12.63;5.87;;;;;;;17.09;82.90;99516.03;1678154;83;20997;-71
2021/06/17 03:11:05;;;;;;;14.55;6.45;;;;;;;17.12;82.93;99527.21;1675869;84;21037;-73
2021/06/17 03:13:32;;;;;;;13.25;6.75;;;;;;;17.15;82.99;99531.23;1669748;84;21032;-73
2021/06/17 03:15:59;;;;;;;16.32;7.20;;;;;;;17.18;82.87;99539.42;1686284;84;21048;-72
2021/06/17 03:18:26;;;;;;;17.35;6.33;;;;;;;17.21;83.03;99542.86;1666779;84;21107;-73
2021/06/17 03:20:53;;;;;;;21.17;6.65;;;;;;;17.22;83.06;99546.66;1658976;84;21501;-74
2021/06/17 03:23:20;;;;;;;14.65;7.20;;;;;;;17.26;83.12;99545.36;1604294;84;21087;-71
2021/06/17 03:25:53;;;;;;;16.77;7.47;;;;;;;17.30;83.00;99554.57;1686709;84;20972;-72
2021/06/17 03:28:19;;;;;;;21.15;7.53;;;;;;;17.32;83.20;99550.86;1688957;84;20972;-74
2021/06/17 03:30:48;;;;;;;14.53;6.10;;;;;;;17.34;83.09;99542.95;1642283;84;21989;-73
2021/06/17 03:33:17;;;;;;;12.80;5.75;;;;;;;17.40;83.24;99542.89;1670302;84;21007;-73
2021/06/17 03:35:45;;;;;;;9.63;5.08;;;;;;;17.47;82.95;99542.47;1656704;84;21022;-79
2021/06/17 03:38:11;;;;;;;12.40;5.72;;;;;;;17.55;83.04;99553.16;1654218;85;21096;-73
2021/06/17 03:40:39;;;;;;;10.53;6.10;;;;;;;17.59;82.63;99560.98;1674692;83;20993;-74
2021/06/17 03:43:05;;;;;;;12.10;5.72;;;;;;;17.63;82.75;99555.51;1680603;84;21996;-74
2021/06/17 03:45:32;;;;;;;8.33;5.67;;;;;;;17.69;82.64;99558.25;1655923;85;20894;-73
2021/06/17 03:47:58;;;;;;;9.80;5.12;;;;;;;17.77;82.61;99558.63;1671976;84;21058;-72
2021/06/17 03:50:25;;;;;;;11.40;4.78;;;;;;;17.83;82.70;99553.59;1679600;84;21043;-76
2021/06/17 03:52:55;;;;;;;15.20;5.05;;;;;;;17.90;82.49;99561.50;1683668;84;21536;-74
2021/06/17 03:55:21;;;;;;;11.10;5.37;;;;;;;17.97;82.40;99563.59;1664619;84;21573;-74
2021/06/17 03:57:51;;;;;;;8.75;4.67;;;;;;;18.04;82.35;99565.13;1675542;84;21049;-76
2021/06/17 04:00:19;;;;;;;9.63;5.28;;;;;;;18.11;81.88;99561.92;1670497;84;20980;-73
2021/06/17 04:02:46;;;;;;;8.40;5.60;;;;;;;18.19;81.99;99562.88;1685881;84;21101;-74
2021/06/17 04:05:13;;;;;;;8.33;4.12;;;;;;;18.28;82.16;99553.73;1647901;85;20992;-73
2021/06/17 04:07:41;;;;;;;7.92;4.78;;;;;;;18.38;81.88;99556.50;1649873;86;21667;-73
2021/06/17 04:10:09;;;;;;;7.90;4.97;;;;;;;18.47;81.47;99559.86;1645109;86;21083;-72
2021/06/17 04:12:38;;;;;;;11.45;5.40;;;;;;;18.55;81.19;99561.56;1670503;84;21608;-73
2021/06/17 04:15:07;;;;;;;8.00;5.28;;;;;;;18.64;81.09;99563.55;1675961;84;21655;-72
2021/06/17 04:17:42;;;;;;;13.28;6.50;;;;;;;18.73;80.96;99567.48;1666167;84;21024;-73
2021/06/17 04:20:15;;;;;;;11.75;5.03;;;;;;;18.81;80.77;99560.88;1686564;84;21151;-73
2021/06/17 04:22:46;;;;;;;11.80;4.85;;;;;;;18.90;80.24;99560.05;1683968;84;21044;-74
2021/06/17 04:25:13;;;;;;;13.37;5.17;;;;;;;18.98;80.28;99559.00;1671484;84;21217;-73
2021/06/17 04:27:41;;;;;;;9.23;5.42;;;;;;;19.08;80.44;99554.77;1648169;84;21028;-74
2021/06/17 04:30:10;;;;;;;13.38;5.08;;;;;;;19.17;79.43;99554.51;1650888;86;21661;-72
2021/06/17 04:32:40;;;;;;;8.98;4.80;;;;;;;19.25;79.45;99550.08;1658397;86;21087;-73
2021/06/17 04:35:07;;;;;;;13.90;5.08;;;;;;;19.35;78.70;99552.81;1644597;85;21037;-72
2021/06/17 04:37:34;;;;;;;13.28;4.70;;;;;;;19.42;78.92;99553.73;1574667;89;21073;-72
2021/06/17 04:40:00;;;;;;;9.05;4.62;;;;;;;19.50;78.65;99554.64;1599632;88;21008;-73
2021/06/17 04:42:27;;;;;;;14.13;4.78;;;;;;;19.57;79.18;99558.15;1628936;87;21080;-73
2021/06/17 04:44:54;;;;;;;10.35;4.78;;;;;;;19.65;78.46;99559.83;1600038;89;21132;-71
2021/06/17 04:47:21;;;;;;;7.10;4.58;;;;;;;19.74;78.09;99556.98;1658242;84;20988;-72
2021/06/17 04:49:47;;;;;;;11.93;5.70;;;;;;;19.84;77.28;99561.69;1649273;84;21596;-72
2021/06/17 04:52:22;;;;;;;11.80;5.83;;;;;;;19.93;76.90;99562.20;1655464;84;22502;-72
2021/06/17 04:54:49;;;;;;;9.33;5.15;;;;;;;20.02;76.86;99569.69;1643712;84;21204;-72
2021/06/17 04:57:15;;;;;;;11.57;4.58;;;;;;;20.11;76.78;99570.20;1632798;86;21103;-71
2021/06/17 04:59:42;;;;;;;7.72;5.03;;;;;;;20.20;76.44;99581.87;1659776;84;21043;-72
2021/06/17 05:02:08;;;;;;;10.65;4.90;;;;;;;20.30;76.28;99580.37;1657232;85;20954;-72
2021/06/17 05:04:36;;;;;;;6.92;4.08;;;;;;;20.41;75.65;99583.52;1628324;86;21096;-72
2021/06/17 05:12:16;;;;;;;11.55;4.85;;;;;;;20.73;75.58;99588.06;1591284;89;21680;-73
2021/06/17 05:14:43;;;;;;;8.10;4.87;;;;;;;20.80;74.81;99591.48;1589464;89;21043;-73
2021/06/17 05:17:09;;;;;;;11.08;4.67;;;;;;;20.88;74.11;99594.56;1593079;89;21031;-73
2021/06/17 05:19:36;;;;;;;8.30;4.45;;;;;;;20.96;74.18;99603.80;1590557;89;21115;-72
2021/06/17 05:22:03;;;;;;;9.00;4.50;;;;;;;21.04;73.98;99606.88;1592240;89;21128;-73
2021/06/17 05:24:29;;;;;;;9.68;5.03;;;;;;;21.13;73.55;99608.76;1596532;89;21554;-73
2021/06/17 05:26:55;;;;;;;10.25;4.70;;;;;;;21.23;73.62;99610.07;1593882;89;21119;-72
2021/06/17 05:29:22;;;;;;;11.12;5.40;;;;;;;21.29;72.76;99605.73;1592015;89;21161;-71
2021/06/17 05:31:48;;;;;;;11.48;4.75;;;;;;;21.35;73.04;99612.57;1589184;89;21605;-71
2021/06/17 05:34:15;;;;;;;9.33;4.45;;;;;;;21.42;71.82;99613.99;1616026;87;21159;-72
2021/06/17 05:36:42;;;;;;;11.08;4.33;;;;;;;21.50;70.90;99613.45;1621772;87;21102;-71
2021/06/17 05:39:08;;;;;;;8.70;4.72;;;;;;;21.58;71.46;99616.52;1610762;87;20983;-71
2021/06/17 05:41:35;;;;;;;7.03;4.53;;;;;;;21.67;72.06;99615.58;1634316;87;21076;-72
2021/06/17 05:44:01;;;;;;;9.38;4.67;;;;;;;21.77;71.91;99622.44;1625054;87;21040;-72
2021/06/17 05:46:28;;;;;;;16.05;4.72;;;;;;;21.83;71.61;99616.09;1610881;87;21598;-71
2021/06/17 05:48:54;;;;;;;7.08;4.70;;;;;;;21.92;71.23;99619.34;1622423;87;21050;-72
2021/06/17 05:51:21;;;;;;;8.83;5.70;;;;;;;22.00;70.34;99621.56;1618914;86;21092;-71
2021/06/17 05:53:47;;;;;;;9.23;5.15;;;;;;;22.05;70.98;99624.02;1587958;88;21051;-72
2021/06/17 05:56:13;;;;;;;6.58;4.22;;;;;;;22.13;70.00;99630.45;1609249;86;21701;-72
2021/06/17 05:58:40;;;;;;;14.58;5.28;;;;;;;22.20;70.31;99627.09;1608100;87;21138;-72
2021/06/17 06:01:06;;;;;;;8.73;4.62;;;;;;;22.27;70.23;99625.73;1605507;87;21455;-72
2021/06/17 06:03:34;;;;;;;11.88;4.28;;;;;;;22.39;69.97;99631.58;1619854;85;21081;-72
2021/06/17 06:06:00;;;;;;;10.30;4.45;;;;;;;22.49;68.84;99630.02;1618406;86;21089;-72
2021/06/17 06:08:28;;;;;;;10.03;5.10;;;;;;;22.56;69.02;99632.81;1657298;85;21555;-72
2021/06/17 06:10:55;;;;;;;10.53;4.62;;;;;;;22.65;69.00;99632.65;1636921;85;21573;-72
2021/06/17 06:13:21;;;;;;;11.25;4.28;;;;;;;22.70;67.86;99639.86;1593440;88;21058;-71
2021/06/17 06:15:48;;;;;;;9.05;5.30;;;;;;;22.73;67.57;99637.67;1625188;87;21554;-71
2021/06/17 06:18:14;;;;;;;8.90;5.00;;;;;;;22.77;67.34;99627.89;1611548;87;21563;-75
2021/06/17 06:20:47;;;;;;;9.98;4.47;;;;;;;22.85;68.99;99628.14;1623895;87;21043;-73
2021/06/17 06:23:13;;;;;;;6.62;4.17;;;;;;;22.96;68.06;99618.57;1620652;87;21793;-75
2021/06/17 06:25:45;;;;;;;8.43;4.53;;;;;;;23.08;68.10;99626.39;1625814;86;21079;-76
2021/06/17 06:28:08;;;;;;;8.28;4.15;;;;;;;23.19;68.65;99623.77;1608061;87;21662;-76
2021/06/17 06:30:36;;;;;;;4.83;4.25;;;;;;;23.29;67.09;99629.98;1618694;87;21072;-72
2021/06/17 06:33:03;;;;;;;9.63;4.12;;;;;;;23.39;66.41;99627.79;1632497;87;21478;-74
2021/06/17 06:35:30;;;;;;;11.97;4.70;;;;;;;23.42;65.01;99624.79;1631700;87;21129;-71
2021/06/17 06:37:57;;;;;;;8.88;4.80;;;;;;;23.44;66.66;99629.39;1635021;87;21005;-72
2021/06/17 06:40:25;;;;;;;10.55;5.22;;;;;;;23.48;66.12;99624.59;1635180;86;21557;-71
2021/06/17 06:42:52;;;;;;;10.82;4.40;;;;;;;23.55;65.70;99630.82;1633500;87;21058;-71
2021/06/17 06:45:19;;;;;;;9.08;3.95;;;;;;;23.62;66.03;99633.02;1626275;86;20968;-73
2021/06/17 06:47:45;;;;;;;7.50;4.20;;;;;;;23.70;66.00;99627.58;1629937;87;21225;-72
2021/06/17 06:50:13;;;;;;;10.48;4.70;;;;;;;23.75;64.68;99628.37;1622295;87;20909;-71
2021/06/17 06:52:40;;;;;;;9.65;3.85;;;;;;;23.76;65.69;99636.38;1617552;87;21488;-71
2021/06/17 06:55:07;;;;;;;10.90;4.17;;;;;;;23.83;64.95;99632.77;1625975;86;21211;-72
2021/06/17 06:57:35;;;;;;;6.08;3.60;;;;;;;23.91;65.17;99637.16;1625809;87;21018;-72
2021/06/17 07:00:02;;;;;;;9.28;3.70;;;;;;;24.06;64.35;99633.73;1629693;87;21135;-72
2021/06/17 07:02:28;;;;;;;7.08;4.25;;;;;;;24.14;65.35;99629.10;1628450;87;21141;-70
2021/06/17 07:04:55;;;;;;;5.50;4.28;;;;;;;24.22;65.05;99634.89;1619697;86;21167;-70
2021/06/17 07:07:21;;;;;;;10.32;4.03;;;;;;;24.34;64.49;99633.65;1641163;85;21022;-70
2021/06/17 07:09:50;;;;;;;4.87;4.03;;;;;;;24.46;63.96;99634.60;1645723;85;21417;-70
2021/06/17 07:12:17;;;;;;;9.15;4.47;;;;;;;24.53;62.93;99634.58;1647673;85;21165;-70
2021/06/17 07:14:44;;;;;;;4.95;4.10;;;;;;;24.61;62.08;99636.75;1649270;86;21029;-70
2021/06/17 07:17:10;;;;;;;6.67;3.90;;;;;;;24.69;62.37;99647.53;1651154;85;21168;-70
2021/06/17 07:19:37;;;;;;;6.50;3.27;;;;;;;24.77;62.34;99642.69;1641324;85;21118;-70
2021/06/17 07:22:04;;;;;;;9.40;4.22;;;;;;;24.91;62.69;99641.77;1636830;86;21573;-71
2021/06/17 07:24:30;;;;;;;10.72;4.00;;;;;;;25.07;61.84;99634.29;1655593;85;21146;-70
2021/06/17 07:26:57;;;;;;;5.85;3.50;;;;;;;25.20;61.39;99632.59;1646949;85;21094;-70
2021/06/17 07:29:23;;;;;;;6.50;3.75;;;;;;;25.26;59.94;99635.96;1661475;85;21192;-71
2021/06/17 07:31:50;;;;;;;14.00;4.45;;;;;;;25.31;60.44;99639.73;1647412;86;21094;-71
2021/06/17 07:34:17;;;;;;;6.55;4.10;;;;;;;25.44;60.17;99639.21;1643014;85;21114;-70
2021/06/17 07:36:43;;;;;;;12.47;4.05;;;;;;;25.53;61.08;99638.13;1660337;85;22060;-70
2021/06/17 07:39:12;;;;;;;5.10;3.55;;;;;;;25.62;60.46;99643.47;1649787;85;21179;-70
2021/06/17 07:41:40;;;;;;;6.42;3.70;;;;;;;25.75;60.09;99641.59;1650704;85;21033;-70
2021/06/17 07:44:07;;;;;;;5.15;3.52;;;;;;;25.88;59.62;99650.50;1653959;86;21037;-70
2021/06/17 07:46:34;;;;;;;5.03;3.60;;;;;;;25.96;59.65;99651.23;1597239;88;21710;-70
2021/06/17 07:49:01;;;;;;;6.12;3.47;;;;;;;26.06;57.72;99656.52;1611050;86;21247;-70
2021/06/17 07:51:30;;;;;;;4.33;3.42;;;;;;;26.13;58.50;99651.63;1620119;86;21196;-79
2021/06/17 07:54:01;;;;;;;6.50;3.37;;;;;;;26.25;58.40;99651.70;1619494;87;21032;-69
2021/06/17 07:56:28;;;;;;;5.22;3.58;;;;;;;26.40;56.83;99653.77;1620896;86;22227;-69
2021/06/17 07:58:55;;;;;;;5.30;3.42;;;;;;;26.48;56.48;99657.48;1605819;87;21043;-70
2021/06/17 08:01:22;;;;;;;11.83;3.50;;;;;;;26.62;57.31;99651.66;1609423;87;22324;-75
2021/06/17 08:03:49;;;;;;;6.40;3.22;;;;;;;26.79;55.78;99645.61;1611417;87;21107;-77
2021/06/17 08:06:17;;;;;;;5.92;3.65;;;;;;;26.91;55.04;99654.89;1609130;88;21055;-73
2021/06/17 08:08:44;;;;;;;8.23;3.00;;;;;;;27.02;54.88;99656.80;1600616;89;21091;-74
2021/06/17 08:11:11;;;;;;;8.10;4.17;;;;;;;27.05;52.75;99663.79;1609186;87;20967;-71
2021/06/17 08:13:38;;;;;;;4.92;3.50;;;;;;;27.08;52.09;99663.55;1602975;87;21199;-72
2021/06/17 08:16:05;;;;;;;4.40;2.90;;;;;;;27.10;52.70;99664.72;1610667;87;21097;-73
2021/06/17 08:18:32;;;;;;;6.08;2.95;;;;;;;27.20;52.73;99661.53;1608560;88;20931;-74
2021/06/17 08:21:01;;;;;;;8.58;4.08;;;;;;;27.30;53.19;99664.80;1629531;87;21065;-71
2021/06/17 08:23:27;;;;;;;7.72;3.30;;;;;;;27.47;50.79;99665.13;1605366;87;21113;-71
2021/06/17 08:25:54;;;;;;;9.20;3.80;;;;;;;27.66;51.07;99654.39;1612218;87;21109;-70
2021/06/17 08:28:26;;;;;;;6.83;3.40;;;;;;;27.90;50.78;99645.47;1616065;87;21087;-74
2021/06/17 08:30:49;;;;;;;5.53;2.92;;;;;;;28.17;48.37;99650.22;1598207;88;21075;-71
2021/06/17 08:33:16;;;;;;;5.78;3.45;;;;;;;28.31;48.12;99654.82;1609062;87;21122;-76
2021/06/17 08:35:42;;;;;;;6.60;3.30;;;;;;;28.37;48.11;99651.64;1607055;87;21027;-71
2021/06/17 08:38:09;;;;;;;11.57;4.20;;;;;;;28.43;47.99;99651.32;1609145;88;21637;-72
2021/06/17 08:40:35;;;;;;;7.83;4.10;;;;;;;28.55;48.72;99647.23;1618022;87;21067;-72
2021/06/17 08:43:03;;;;;;;4.40;3.17;;;;;;;28.67;47.80;99653.45;1629141;87;21106;-72
2021/06/17 08:45:30;;;;;;;9.98;3.37;;;;;;;28.79;47.74;99658.44;1609573;87;21530;-71
2021/06/17 08:47:57;;;;;;;10.23;3.20;;;;;;;28.92;47.36;99672.87;1619690;87;21055;-72
2021/06/17 08:50:24;;;;;;;7.90;3.75;;;;;;;28.95;45.47;99675.44;1618313;86;21151;-71
2021/06/17 08:52:51;;;;;;;9.55;2.98;;;;;;;29.00;46.40;99672.10;1607366;86;21682;-71
2021/06/17 08:55:23;;;;;;;9.08;3.60;;;;;;;29.03;45.29;99685.97;1623951;86;21086;-71
2021/06/17 08:57:52;;;;;;;7.70;2.90;;;;;;;29.06;45.35;99679.45;1625186;87;21063;-72
2021/06/17 09:00:35;;;;;;;5.12;3.05;;;;;;;29.13;46.15;99676.45;1618634;87;21133;-71
2021/06/17 09:03:19;;;;;;;6.10;3.30;;;;;;;29.31;46.11;99681.09;1619260;87;21155;-72
2021/06/17 09:05:54;;;;;;;4.50;3.25;;;;;;;29.46;46.01;99680.16;1608410;87;21011;-72
2021/06/17 09:08:34;;;;;;;4.92;2.75;;;;;;;29.60;45.44;99677.58;1625090;86;21653;-72
2021/06/17 09:10:57;;;;;;;5.90;3.10;;;;;;;29.70;43.07;99680.14;1612248;87;21074;-72
2021/06/17 09:13:33;;;;;;;5.78;3.12;;;;;;;29.66;43.58;99678.64;1612341;87;21054;-72
2021/06/17 09:16:00;;;;;;;6.95;3.60;;;;;;;29.62;44.46;99690.66;1616832;86;21138;-72
2021/06/17 09:18:34;;;;;;;3.92;2.98;;;;;;;29.66;45.49;99702.69;1609700;87;21107;-72
2021/06/17 09:21:05;;;;;;;6.03;2.80;;;;;;;29.68;44.46;99686.86;1613246;87;21575;-72
2021/06/17 09:23:41;;;;;;;9.63;3.25;;;;;;;29.80;44.32;99692.42;1607592;86;21086;-70
2021/06/17 09:26:22;;;;;;;10.03;3.30;;;;;;;29.78;43.56;99687.83;1617725;87;21046;-71
2021/06/17 09:29:00;;;;;;;4.53;3.27;;;;;;;29.66;43.93;99688.55;1609720;87;21202;-72
2021/06/17 09:31:29;;;;;;;3.42;2.52;;;;;;;29.62;44.52;99679.34;1617037;87;20981;-70
2021/06/17 09:33:57;;;;;;;6.40;3.00;;;;;;;29.62;44.47;99689.25;1619693;86;21070;-72
2021/06/17 09:36:26;;;;;;;4.28;2.83;;;;;;;29.72;44.99;99683.33;1616788;86;20988;-71
2021/06/17 09:38:55;;;;;;;8.20;2.83;;;;;;;29.95;44.37;99685.79;1615773;87;21068;-72
2021/06/17 09:41:47;;;;;;;11.40;3.02;;;;;;;30.10;43.07;99677.89;1613681;87;21866;-71
2021/06/17 09:44:32;;;;;;;5.92;3.25;;;;;;;29.96;43.90;99688.80;1612368;87;21092;-72
2021/06/17 09:47:21;;;;;;;5.65;2.98;;;;;;;29.76;44.04;99681.20;1606678;87;21076;-72
2021/06/17 09:49:48;;;;;;;8.38;3.10;;;;;;;29.58;45.06;99687.92;1621927;87;21951;-73
2021/06/17 09:52:16;;;;;;;4.37;3.00;;;;;;;29.56;45.31;99690.39;1606420;87;21434;-72
2021/06/17 09:54:43;;;;;;;5.20;2.95;;;;;;;29.45;45.17;99685.64;1590417;88;21145;-72
2021/06/17 09:57:15;;;;;;;8.13;3.90;;;;;;;29.26;45.33;99680.20;1616486;87;21079;-74
2021/06/17 09:59:45;;;;;;;8.33;3.50;;;;;;;29.03;45.71;99689.59;1606851;87;21075;-73
2021/06/17 10:02:21;;;;;;;9.60;4.95;;;;;;;28.83;45.79;99688.23;1608930;87;21669;-72
2021/06/17 10:04:47;;;;;;;11.05;4.15;;;;;;;28.89;47.39;99684.25;1610450;87;21047;-72
2021/06/17 10:07:13;;;;;;;8.00;4.50;;;;;;;29.03;46.63;99684.56;1624865;87;21231;-72
2021/06/17 10:09:40;;;;;;;5.33;3.25;;;;;;;29.15;46.07;99676.81;1638754;86;21107;-71
2021/06/17 10:12:08;;;;;;;9.00;3.67;;;;;;;29.15;45.97;99688.13;1620184;86;21089;-71
2021/06/17 10:14:34;;;;;;;11.12;4.22;;;;;;;29.20;46.37;99683.36;1614417;87;21087;-71
2021/06/17 10:17:03;;;;;;;16.90;4.05;;;;;;;29.35;46.95;99684.62;1604208;87;21603;-70
2021/06/17 10:19:33;;;;;;;12.35;5.42;;;;;;;29.68;46.40;99670.51;1607446;87;21184;-72
2021/06/17 10:22:03;;;;;;;8.08;4.17;;;;;;;30.08;46.01;99678.95;1626654;87;21090;-71
2021/06/17 10:24:34;;;;;;;10.23;4.03;;;;;;;30.17;44.69;99677.70;1610437;87;21042;-72
2021/06/17 10:27:09;;;;;;;11.33;4.10;;;;;;;30.12;44.40;99674.00;1593623;88;21554;-70
2021/06/17 10:29:42;;;;;;;4.60;3.33;;;;;;;30.17;43.98;99672.66;1662889;84;21104;-72
2021/06/17 10:32:16;;;;;;;7.87;4.10;;;;;;;30.26;44.00;99672.02;1674401;84;21555;-71
2021/06/17 10:34:45;;;;;;;8.50;4.17;;;;;;;30.34;43.74;99664.92;1650216;85;21116;-72
2021/06/17 10:37:26;;;;;;;7.67;4.62;;;;;;;30.43;43.66;99665.06;1658771;84;21531;-72
2021/06/17 10:40:13;;;;;;;11.08;4.55;;;;;;;30.51;43.32;99666.45;1660091;84;21070;-72
2021/06/17 10:42:45;;;;;;;11.90;6.03;;;;;;;30.37;42.06;99662.61;1605587;87;21523;-71
2021/06/17 10:45:37;;;;;;;11.48;4.92;;;;;;;29.89;42.51;99675.63;1593559;87;21197;-73
2021/06/17 10:48:06;;;;;;;;;;;;;;;29.54;43.53;99659.72;1603729;87;21075;-77
2021/06/17 10:50:47;;;;;;;8.65;5.22;;;;;;;29.50;45.81;99663.25;1616937;87;20164;-74
2021/06/17 10:53:40;;;;;;;4.95;3.95;;;;;;;29.61;44.95;99657.34;1604725;87;21034;-75
2021/06/17 10:56:31;;;;;;;6.12;3.95;;;;;;;29.63;43.42;99656.89;1616004;87;21143;-73
2021/06/17 10:58:57;;;;;;;4.08;3.15;;;;;;;29.28;43.79;99650.87;1611553;87;21713;-72
2021/06/17 11:01:40;;;;;;;12.50;5.08;;;;;;;29.06;44.95;99649.16;1616332;87;21103;-71
2021/06/17 11:04:23;;;;;;;7.72;2.83;;;;;;;29.04;45.59;99643.77;1619411;86;21058;-72
2021/06/17 11:06:57;;;;;;;14.85;6.97;;;;;;;29.20;45.14;99630.45;1608904;87;21006;-72
2021/06/17 11:09:39;;;;;;;6.33;3.08;;;;;;;29.47;45.31;99633.65;1619268;86;21072;-72
2021/06/17 11:12:25;;;;;;;9.88;3.30;;;;;;;29.85;43.96;99631.06;1607136;86;21163;-73
2021/06/17 11:14:57;;;;;;;7.47;3.40;;;;;;;30.17;43.13;99625.33;1612413;87;21071;-71
2021/06/17 11:17:35;;;;;;;6.65;4.90;;;;;;;30.35;44.20;99629.08;1613761;87;21139;-72
2021/06/17 11:22:47;;;;;;;9.75;3.15;;;;;;;30.98;41.63;99630.45;1602463;88;21080;-72
2021/06/17 11:25:21;;;;;;;8.85;4.03;;;;;;;31.13;41.35;99635.25;1597518;88;21217;-72
2021/06/17 11:28:02;;;;;;;13.28;4.30;;;;;;;31.23;40.25;99640.38;1585139;87;21034;-78
2021/06/17 11:30:48;;;;;;;7.00;4.95;;;;;;;31.28;39.57;99631.30;1602815;87;21030;-76
2021/06/17 11:33:24;;;;;;;5.08;2.70;;;;;;;31.28;39.37;99631.93;1604340;88;21096;-71
2021/06/17 11:36:03;;;;;;;7.30;2.87;;;;;;;31.23;38.77;99619.11;1592653;89;21043;-73
2021/06/17 11:38:32;;;;;;;4.90;2.77;;;;;;;31.19;38.37;99624.93;1595566;89;21163;-72
2021/06/17 11:41:00;;;;;;;7.45;4.80;;;;;;;31.18;38.97;99622.55;1646791;85;20965;-71
2021/06/17 11:43:29;;;;;;;7.12;4.08;;;;;;;31.31;40.80;99626.14;1671640;85;21117;-73
2021/06/17 11:45:55;;;;;;;13.88;5.00;;;;;;;31.52;40.24;99633.95;1688822;84;21107;-73
2021/06/17 11:48:22;;;;;;;11.45;4.85;;;;;;;31.44;40.14;99629.77;1673049;84;21504;-70